createdAt,value
2018-02-19T00:01:18.067Z,6.89
2018-02-19T00:03:45.654Z,6.92
2018-02-19T00:06:13.269Z,6.93
2018-02-19T00:08:40.924Z,6.96
2018-02-19T00:11:08.497Z,6.94
2018-02-19T00:13:36.135Z,6.98
2018-02-19T00:16:03.727Z,6.96
2018-02-19T00:18:31.335Z,6.89
2018-02-19T00:20:59.259Z,6.90
2018-02-19T00:23:26.930Z,6.88
2018-02-19T00:25:54.499Z,6.89
2018-02-19T00:28:22.111Z,6.85
2018-02-19T00:30:49.710Z,6.80
2018-02-19T00:33:17.293Z,6.81
2018-02-19T00:35:44.957Z,6.77
2018-02-19T00:38:12.512Z,6.81
2018-02-19T00:40:41.018Z,6.80
2018-02-19T00:43:08.674Z,6.80
2018-02-19T00:45:36.250Z,6.81
2018-02-19T00:48:03.832Z,6.78
2018-02-19T00:50:31.857Z,6.72
2018-02-19T00:52:59.438Z,6.57
2018-02-19T00:55:27.074Z,6.62
2018-02-19T00:57:54.738Z,6.58
2018-02-19T01:00:22.322Z,6.44
2018-02-19T01:02:49.919Z,6.44
2018-02-19T01:05:17.541Z,6.45
2018-02-19T01:07:45.197Z,6.46
2018-02-19T01:10:12.777Z,6.48
2018-02-19T01:12:40.414Z,6.54
2018-02-19T01:15:07.976Z,6.56
2018-02-19T01:17:35.538Z,6.59
2018-02-19T01:20:03.512Z,6.62
2018-02-19T01:22:31.110Z,6.59
2018-02-19T01:24:58.677Z,6.60
2018-02-19T01:27:26.328Z,6.61
2018-02-19T01:29:53.888Z,6.63
2018-02-19T01:32:21.522Z,6.68
2018-02-19T01:34:49.163Z,6.66
2018-02-19T01:37:16.759Z,6.69
2018-02-19T01:39:44.346Z,6.71
2018-02-19T01:42:12.210Z,6.73
2018-02-19T01:44:39.785Z,6.71
2018-02-19T01:47:07.378Z,6.71
2018-02-19T01:49:35.025Z,6.62
2018-02-19T01:52:02.837Z,6.61
2018-02-19T01:54:30.418Z,6.62
2018-02-19T01:56:58.045Z,6.66
2018-02-19T01:59:25.631Z,6.69
2018-02-19T02:01:53.328Z,6.74
2018-02-19T02:04:20.991Z,6.77
2018-02-19T02:06:48.891Z,6.73
2018-02-19T02:09:16.481Z,6.72
2018-02-19T02:11:44.198Z,6.70
2018-02-19T02:14:11.770Z,6.66
2018-02-19T02:16:39.341Z,6.64
2018-02-19T02:19:06.995Z,6.64
2018-02-19T02:21:34.564Z,6.61
2018-02-19T02:24:02.158Z,6.56
2018-02-19T02:26:29.793Z,6.52
2018-02-19T02:28:58.251Z,6.47
2018-02-19T02:31:25.829Z,6.41
2018-02-19T02:33:53.465Z,6.45
2018-02-19T02:36:21.042Z,6.44
2018-02-19T02:38:48.617Z,6.42
2018-02-19T02:41:16.264Z,6.46
2018-02-19T02:43:43.865Z,6.48
2018-02-19T02:46:11.468Z,6.46
2018-02-19T02:48:39.343Z,6.46
2018-02-19T02:51:06.980Z,6.49
2018-02-19T02:53:34.901Z,6.51
2018-02-19T02:56:02.529Z,6.50
2018-02-19T02:58:30.205Z,6.43
2018-02-19T03:00:57.794Z,6.46
2018-02-19T03:03:25.446Z,6.45
2018-02-19T03:05:53.050Z,6.44
2018-02-19T03:08:20.706Z,6.44
2018-02-19T03:10:48.313Z,6.36
2018-02-19T03:13:15.894Z,6.30
2018-02-19T03:15:43.452Z,6.21
2018-02-19T03:18:11.089Z,6.26
2018-02-19T03:20:38.659Z,6.31
2018-02-19T03:23:06.305Z,6.31
2018-02-19T03:25:33.936Z,6.30
2018-02-19T03:28:01.578Z,6.27
2018-02-19T03:30:29.270Z,6.34
2018-02-19T03:32:56.910Z,6.35
2018-02-19T03:35:24.473Z,6.41
2018-02-19T03:37:52.046Z,6.45
2018-02-19T03:40:20.834Z,6.41
2018-02-19T03:42:48.413Z,6.41
2018-02-19T03:45:16.070Z,6.43
2018-02-19T03:47:43.721Z,6.39
2018-02-19T03:50:11.340Z,6.39
2018-02-19T03:52:39.408Z,6.38
2018-02-19T03:55:08.105Z,6.32
2018-02-19T03:57:35.668Z,6.33
2018-02-19T04:00:03.271Z,6.31
2018-02-19T04:02:30.988Z,6.23
2018-02-19T04:04:58.548Z,6.19
2018-02-19T04:07:26.192Z,6.20
2018-02-19T04:09:54.086Z,6.15
2018-02-19T04:12:21.658Z,6.18
2018-02-19T04:14:49.235Z,6.14
2018-02-19T04:17:17.552Z,6.16
2018-02-19T04:19:45.128Z,6.21
2018-02-19T04:22:12.753Z,6.28
2018-02-19T04:24:40.397Z,6.30
2018-02-19T04:27:07.979Z,6.26
2018-02-19T04:29:35.557Z,6.19
2018-02-19T04:32:03.189Z,6.21
2018-02-19T04:34:30.766Z,6.24
2018-02-19T04:36:58.365Z,6.19
2018-02-19T04:39:25.994Z,6.05
2018-02-19T04:41:53.576Z,6.01
2018-02-19T04:44:24.536Z,5.99
2018-02-19T04:46:52.471Z,5.95
2018-02-19T04:49:20.055Z,5.91
2018-02-19T04:51:47.613Z,5.93
2018-02-19T04:54:15.263Z,5.97
2018-02-19T04:56:42.946Z,5.99
2018-02-19T04:59:10.630Z,6.01
2018-02-19T05:01:38.344Z,6.06
2018-02-19T05:04:05.917Z,6.04
2018-02-19T05:06:33.551Z,6.07
2018-02-19T05:09:01.200Z,6.13
2018-02-19T05:11:28.772Z,6.18
2018-02-19T05:13:56.406Z,6.18
2018-02-19T05:16:24.032Z,6.23
2018-02-19T05:18:51.601Z,6.29
2018-02-19T05:21:19.190Z,6.36
2018-02-19T05:23:46.864Z,6.38
2018-02-19T05:26:14.463Z,6.42
2018-02-19T05:28:42.054Z,6.45
2018-02-19T05:31:09.688Z,6.50
2018-02-19T05:33:37.273Z,6.48
2018-02-19T05:36:04.841Z,6.45
2018-02-19T05:38:32.466Z,6.46
2018-02-19T05:41:00.131Z,6.47
2018-02-19T05:43:27.688Z,6.45
2018-02-19T05:45:55.818Z,6.48
2018-02-19T05:48:23.400Z,6.51
2018-02-19T05:50:51.012Z,6.58
2018-02-19T05:53:18.701Z,6.62
2018-02-19T05:55:46.285Z,6.65
2018-02-19T05:58:13.962Z,6.66
2018-02-19T06:00:41.575Z,6.65
2018-02-19T06:03:09.145Z,6.67
2018-02-19T06:05:36.736Z,6.66
2018-02-19T06:08:04.411Z,6.64
2018-02-19T06:10:32.075Z,6.60
2018-02-19T06:12:59.655Z,6.64
2018-02-19T06:15:27.281Z,6.63
2018-02-19T06:17:54.850Z,6.68
2018-02-19T06:20:22.444Z,6.70
2018-02-19T06:22:50.345Z,6.68
2018-02-19T06:25:17.930Z,6.71
2018-02-19T06:27:45.682Z,6.71
2018-02-19T06:30:13.365Z,6.76
2018-02-19T06:32:40.973Z,6.72
2018-02-19T06:35:08.570Z,6.59
2018-02-19T06:37:36.232Z,6.51
2018-02-19T06:40:03.849Z,6.54
2018-02-19T06:42:31.479Z,6.56
2018-02-19T06:44:59.195Z,6.58
2018-02-19T06:47:26.774Z,6.60
2018-02-19T06:49:54.342Z,6.60
2018-02-19T06:52:22.008Z,6.63
2018-02-19T06:54:49.584Z,6.69
2018-02-19T06:57:17.145Z,6.69
2018-02-19T06:59:45.459Z,6.67
2018-02-19T07:02:13.050Z,6.67
2018-02-19T07:04:40.694Z,6.61
2018-02-19T07:07:08.326Z,6.36
2018-02-19T07:09:35.982Z,6.34
2018-02-19T07:12:03.552Z,6.32
2018-02-19T07:14:31.182Z,6.37
2018-02-19T07:16:58.760Z,6.37
2018-02-19T07:19:26.330Z,6.24
2018-02-19T07:21:53.974Z,6.27
2018-02-19T07:24:21.553Z,6.26
2018-02-19T07:26:49.174Z,6.33
2018-02-19T07:29:16.818Z,6.41
2018-02-19T07:31:44.431Z,6.42
2018-02-19T07:34:12.083Z,6.53
2018-02-19T07:36:39.704Z,6.51
2018-02-19T07:39:07.287Z,6.46
2018-02-19T07:41:35.354Z,6.57
2018-02-19T07:44:02.985Z,6.70
2018-02-19T07:46:30.547Z,6.79
2018-02-19T07:48:58.146Z,6.67
2018-02-19T07:51:25.772Z,6.67
2018-02-19T07:53:53.337Z,6.62
2018-02-19T07:56:20.918Z,6.65
2018-02-19T07:58:48.714Z,6.63
2018-02-19T08:01:16.402Z,6.60
2018-02-19T08:03:44.446Z,6.69
2018-02-19T08:06:12.093Z,6.78
2018-02-19T08:08:39.664Z,6.79
2018-02-19T08:11:08.178Z,6.94
2018-02-19T08:13:35.809Z,6.89
2018-02-19T08:16:03.390Z,6.88
2018-02-19T08:18:30.987Z,6.90
2018-02-19T08:20:58.642Z,6.83
2018-02-19T08:23:26.209Z,6.67
2018-02-19T08:25:53.760Z,6.53
2018-02-19T08:28:21.458Z,6.51
2018-02-19T08:30:49.042Z,6.29
2018-02-19T08:33:16.687Z,6.32
2018-02-19T08:35:44.319Z,6.30
2018-02-19T08:38:11.976Z,6.31
2018-02-19T08:40:39.540Z,6.35
2018-02-19T08:43:07.164Z,6.40
2018-02-19T08:45:34.802Z,6.33
2018-02-19T08:48:02.387Z,6.27
2018-02-19T08:50:30.027Z,6.30
2018-02-19T08:52:57.674Z,6.35
2018-02-19T08:55:25.354Z,6.42
2018-02-19T08:57:53.038Z,6.41
2018-02-19T09:00:20.782Z,6.45
2018-02-19T09:02:48.466Z,6.41
2018-02-19T09:05:16.110Z,6.42
2018-02-19T09:07:43.693Z,6.46
2018-02-19T09:10:11.304Z,6.44
2018-02-19T09:12:38.987Z,6.49
2018-02-19T09:15:06.528Z,6.62
2018-02-19T09:17:34.185Z,6.68
2018-02-19T09:20:02.048Z,6.58
2018-02-19T09:22:29.718Z,6.48
2018-02-19T09:24:57.272Z,6.44
2018-02-19T09:27:24.909Z,6.46
2018-02-19T09:29:52.507Z,6.47
2018-02-19T09:32:20.101Z,6.38
2018-02-19T09:34:47.817Z,6.42
2018-02-19T09:37:15.387Z,6.50
2018-02-19T09:39:43.028Z,6.39
2018-02-19T09:42:10.743Z,6.40
2018-02-19T09:44:38.318Z,6.34
2018-02-19T09:47:05.919Z,6.29
2018-02-19T09:49:33.545Z,6.26
2018-02-19T09:52:01.123Z,6.27
2018-02-19T09:54:28.703Z,6.17
2018-02-19T09:56:56.347Z,6.09
2018-02-19T09:59:23.919Z,6.25
2018-02-19T10:01:51.498Z,6.24
2018-02-19T10:04:19.222Z,6.16
2018-02-19T10:06:46.867Z,6.11
2018-02-19T10:09:14.432Z,6.26
2018-02-19T10:11:42.878Z,6.17
2018-02-19T10:14:10.459Z,6.12
2018-02-19T10:16:38.031Z,6.08
2018-02-19T10:19:05.658Z,6.10
2018-02-19T10:21:33.235Z,6.17
2018-02-19T10:24:00.805Z,6.23
2018-02-19T10:26:28.454Z,6.24
2018-02-19T10:28:56.042Z,6.25
2018-02-19T10:31:23.621Z,6.28
2018-02-19T10:33:51.274Z,6.40
2018-02-19T10:36:18.845Z,6.45
2018-02-19T10:38:46.491Z,6.46
2018-02-19T10:41:14.112Z,6.48
2018-02-19T10:43:41.686Z,6.30
2018-02-19T10:46:09.296Z,6.22
2018-02-19T10:48:36.932Z,6.17
2018-02-19T10:51:04.598Z,6.28
2018-02-19T10:53:32.981Z,6.30
2018-02-19T10:56:00.641Z,6.37
2018-02-19T10:58:28.218Z,6.41
2018-02-19T11:00:55.784Z,6.41
2018-02-19T11:03:23.439Z,6.37
2018-02-19T11:05:51.138Z,6.29
2018-02-19T11:08:19.331Z,6.21
2018-02-19T11:10:46.978Z,6.27
2018-02-19T11:13:14.569Z,6.34
2018-02-19T11:15:42.137Z,6.40
2018-02-19T11:18:09.800Z,6.46
2018-02-19T11:20:37.367Z,6.47
2018-02-19T11:23:04.933Z,6.50
2018-02-19T11:25:32.578Z,6.55
2018-02-19T11:28:00.148Z,6.62
2018-02-19T11:30:27.716Z,6.64
2018-02-19T11:32:55.351Z,6.67
2018-02-19T11:35:22.951Z,6.67
2018-02-19T11:37:50.534Z,6.66
2018-02-19T11:40:18.150Z,6.55
2018-02-19T11:42:45.728Z,6.67
2018-02-19T11:45:13.293Z,6.77
2018-02-19T11:47:41.076Z,6.84
2018-02-19T11:50:09.038Z,6.93
2018-02-19T11:52:36.691Z,6.94
2018-02-19T11:55:04.328Z,6.98
2018-02-19T11:57:31.920Z,6.94
2018-02-19T11:59:59.491Z,6.90
2018-02-19T12:02:27.133Z,6.82
2018-02-19T12:04:54.720Z,6.88
2018-02-19T12:07:22.425Z,6.87
2018-02-19T12:09:50.057Z,6.92
2018-02-19T12:12:17.639Z,6.98
2018-02-19T12:14:45.231Z,7.05
2018-02-19T12:17:12.866Z,7.01
2018-02-19T12:19:40.537Z,7.08
2018-02-19T12:22:08.138Z,7.16
2018-02-19T12:24:35.807Z,7.22
2018-02-19T12:27:03.398Z,7.22
2018-02-19T12:29:31.042Z,7.20
2018-02-19T12:31:58.826Z,7.25
2018-02-19T12:34:26.400Z,7.23
2018-02-19T12:36:53.969Z,7.25
2018-02-19T12:39:21.614Z,7.23
2018-02-19T12:41:49.186Z,7.24
2018-02-19T12:44:16.762Z,7.25
2018-02-19T12:46:44.403Z,7.11
2018-02-19T12:49:11.979Z,7.06
2018-02-19T12:51:39.548Z,6.93
2018-02-19T12:54:07.847Z,6.99
2018-02-19T12:56:35.412Z,7.05
2018-02-19T12:59:03.017Z,7.03
2018-02-19T13:01:30.668Z,6.97
2018-02-19T13:03:58.310Z,6.95
2018-02-19T13:06:25.891Z,6.92
2018-02-19T13:08:53.740Z,6.85
2018-02-19T13:11:21.280Z,6.88
2018-02-19T13:13:48.857Z,6.88
2018-02-19T13:16:16.517Z,6.86
2018-02-19T13:18:44.122Z,6.87
2018-02-19T13:21:11.744Z,6.87
2018-02-19T13:23:39.353Z,6.89
2018-02-19T13:26:06.932Z,6.88
2018-02-19T13:28:34.525Z,6.75
2018-02-19T13:31:02.251Z,6.55
2018-02-19T13:33:29.908Z,6.53
2018-02-19T13:35:57.541Z,6.53
2018-02-19T13:38:25.168Z,6.57
2018-02-19T13:40:52.762Z,6.66
2018-02-19T13:43:20.410Z,6.76
2018-02-19T13:45:48.149Z,6.85
2018-02-19T13:48:15.849Z,6.83
2018-02-19T13:50:43.628Z,6.77
2018-02-19T13:53:11.460Z,6.59
2018-02-19T13:55:39.199Z,6.37
2018-02-19T13:58:06.922Z,6.15
2018-02-19T14:00:34.908Z,6.09
2018-02-19T14:03:02.598Z,6.04
2018-02-19T14:05:30.342Z,6.06
2018-02-19T14:07:58.161Z,6.09
2018-02-19T14:10:26.308Z,6.06
2018-02-19T14:12:53.984Z,5.98
2018-02-19T14:15:21.686Z,6.09
2018-02-19T14:17:49.260Z,6.10
2018-02-19T14:20:17.398Z,6.14
2018-02-19T14:22:45.014Z,6.21
2018-02-19T14:25:12.569Z,6.29
2018-02-19T14:27:40.148Z,6.32
2018-02-19T14:30:07.836Z,6.10
2018-02-19T14:32:35.480Z,6.12
2018-02-19T14:35:03.056Z,6.11
2018-02-19T14:37:30.771Z,6.16
2018-02-19T14:39:58.378Z,6.16
2018-02-19T14:42:25.945Z,6.14
2018-02-19T14:44:53.586Z,6.14
2018-02-19T14:47:21.150Z,6.15
2018-02-19T14:49:48.719Z,6.15
2018-02-19T14:52:16.342Z,6.18
2018-02-19T14:54:43.970Z,6.20
2018-02-19T14:57:11.542Z,6.18
2018-02-19T14:59:39.236Z,6.18
2018-02-19T15:02:06.824Z,6.20
2018-02-19T15:04:34.405Z,6.19
2018-02-19T15:07:02.121Z,6.06
2018-02-19T15:09:29.673Z,6.09
2018-02-19T15:11:57.410Z,6.09
2018-02-19T15:14:25.107Z,6.07
2018-02-19T15:16:52.678Z,6.08
2018-02-19T15:19:20.264Z,6.09
2018-02-19T15:21:47.882Z,6.10
2018-02-19T15:24:15.496Z,6.11
2018-02-19T15:26:43.279Z,6.15
2018-02-19T15:29:11.085Z,6.16
2018-02-19T15:31:38.669Z,6.17
2018-02-19T15:34:06.281Z,6.15
2018-02-19T15:36:33.926Z,6.13
2018-02-19T15:39:01.546Z,6.17
2018-02-19T15:41:29.153Z,6.12
2018-02-19T15:43:56.766Z,6.13
2018-02-19T15:46:24.395Z,6.05
2018-02-19T15:48:52.192Z,5.96
2018-02-19T15:51:20.959Z,5.98
2018-02-19T15:53:49.564Z,5.96
2018-02-19T15:56:17.206Z,5.87
2018-02-19T15:58:44.826Z,5.92
2018-02-19T16:01:12.404Z,5.85
2018-02-19T16:03:39.974Z,5.88
2018-02-19T16:06:07.594Z,5.76
2018-02-19T16:08:36.176Z,5.84
2018-02-19T16:11:03.873Z,5.85
2018-02-19T16:13:32.202Z,5.87
2018-02-19T16:16:00.185Z,5.82
2018-02-19T16:18:27.754Z,5.79
2018-02-19T16:20:55.428Z,5.78
2018-02-19T16:23:23.031Z,5.83
2018-02-19T16:25:51.020Z,5.83
2018-02-19T16:28:19.489Z,5.77
2018-02-19T16:30:47.445Z,5.75
2018-02-19T16:33:15.499Z,5.75
2018-02-19T16:35:43.133Z,5.77
2018-02-19T16:38:10.719Z,5.65
2018-02-19T16:40:38.336Z,5.63
2018-02-19T16:43:05.971Z,5.61
2018-02-19T16:45:33.551Z,5.61
2018-02-19T16:48:01.200Z,5.64
2018-02-19T16:50:28.813Z,5.65
2018-02-19T16:52:56.766Z,5.57
2018-02-19T16:55:24.418Z,5.53
2018-02-19T16:57:52.076Z,5.48
2018-02-19T17:00:19.644Z,5.54
2018-02-19T17:02:47.476Z,5.55
2018-02-19T17:05:15.343Z,5.55
2018-02-19T17:07:43.144Z,5.58
2018-02-19T17:10:11.040Z,5.53
2018-02-19T17:12:38.947Z,5.53
2018-02-19T17:15:06.729Z,5.56
2018-02-19T17:17:34.325Z,5.54
2018-02-19T17:20:01.959Z,5.59
2018-02-19T17:22:29.577Z,5.60
2018-02-19T17:24:57.159Z,5.59
2018-02-19T17:27:24.831Z,5.57
2018-02-19T17:29:52.397Z,5.59
2018-02-19T17:32:19.971Z,5.55
2018-02-19T17:34:47.837Z,5.51
2018-02-19T17:37:15.413Z,5.43
2018-02-19T17:39:43.114Z,5.45
2018-02-19T17:42:10.753Z,5.47
2018-02-19T17:44:38.345Z,5.52
2018-02-19T17:47:05.920Z,5.53
2018-02-19T17:49:33.596Z,5.50
2018-02-19T17:52:01.186Z,5.49
2018-02-19T17:54:28.763Z,5.51
2018-02-19T17:56:56.663Z,5.52
2018-02-19T17:59:24.236Z,5.48
2018-02-19T18:01:51.831Z,5.51
2018-02-19T18:04:19.514Z,5.40
2018-02-19T18:06:47.077Z,5.28
2018-02-19T18:09:14.659Z,5.29
2018-02-19T18:11:42.352Z,5.25
2018-02-19T18:14:09.999Z,5.24
2018-02-19T18:16:37.726Z,5.27
2018-02-19T18:19:05.357Z,5.29
2018-02-19T18:21:32.943Z,5.31
2018-02-19T18:24:00.539Z,5.25
2018-02-19T18:26:28.243Z,5.26
2018-02-19T18:28:55.805Z,5.21
2018-02-19T18:31:23.404Z,5.23
2018-02-19T18:33:51.035Z,5.24
2018-02-19T18:36:18.646Z,5.17
2018-02-19T18:38:46.214Z,5.09
2018-02-19T18:41:13.842Z,5.11
2018-02-19T18:43:41.468Z,5.05
2018-02-19T18:46:09.093Z,5.08
2018-02-19T18:48:36.782Z,5.08
2018-02-19T18:51:04.370Z,5.13
2018-02-19T18:53:31.937Z,5.11
2018-02-19T18:55:59.549Z,5.10
2018-02-19T18:58:27.121Z,5.15
2018-02-19T19:00:54.694Z,5.16
2018-02-19T19:03:22.317Z,5.15
2018-02-19T19:05:49.951Z,5.16
2018-02-19T19:08:29.228Z,5.10
2018-02-19T19:10:56.868Z,5.12
2018-02-19T19:13:24.448Z,5.12
2018-02-19T19:15:52.139Z,5.04
2018-02-19T19:18:20.102Z,5.07
2018-02-19T19:20:47.762Z,5.12
2018-02-19T19:23:15.404Z,5.08
2018-02-19T19:25:42.983Z,5.03
2018-02-19T19:28:10.663Z,4.94
2018-02-19T19:30:38.271Z,4.89
2018-02-19T19:33:06.473Z,4.90
2018-02-19T19:35:34.084Z,4.89
2018-02-19T19:38:01.698Z,4.88
2018-02-19T19:40:30.034Z,4.83
2018-02-19T19:42:57.630Z,4.83
2018-02-19T19:45:25.278Z,4.83
2018-02-19T19:47:52.883Z,4.87
2018-02-19T19:50:20.484Z,4.82
2018-02-19T19:52:48.110Z,4.83
2018-02-19T19:55:15.734Z,4.83
2018-02-19T19:57:43.389Z,4.90
2018-02-19T20:00:11.047Z,4.98
2018-02-19T20:02:38.890Z,4.99
2018-02-19T20:05:06.444Z,4.98
2018-02-19T20:07:34.084Z,4.79
2018-02-19T20:10:01.707Z,4.75
2018-02-19T20:12:29.294Z,4.78
2018-02-19T20:14:56.959Z,4.82
2018-02-19T20:17:24.519Z,4.83
2018-02-19T20:19:52.202Z,4.80
2018-02-19T20:22:19.847Z,4.83
2018-02-19T20:24:47.470Z,4.80
2018-02-19T20:27:15.037Z,4.78
2018-02-19T20:29:42.657Z,4.84
2018-02-19T20:32:10.650Z,4.87
2018-02-19T20:34:38.267Z,4.88
2018-02-19T20:37:05.885Z,4.87
2018-02-19T20:39:34.411Z,4.78
2018-02-19T20:42:01.985Z,4.77
2018-02-19T20:44:29.635Z,4.76
2018-02-19T20:46:57.234Z,4.78
2018-02-19T20:49:24.846Z,4.80
2018-02-19T20:51:52.482Z,4.83
2018-02-19T20:54:20.198Z,4.82
2018-02-19T20:56:47.818Z,4.80
2018-02-19T20:59:15.498Z,4.86
2018-02-19T21:01:43.085Z,4.86
2018-02-19T21:04:10.707Z,4.86
2018-02-19T21:06:38.342Z,4.84
2018-02-19T21:09:05.948Z,4.86
2018-02-19T21:11:34.174Z,4.84
2018-02-19T21:14:01.823Z,4.88
2018-02-19T21:16:29.560Z,4.87
2018-02-19T21:18:57.129Z,4.81
2018-02-19T21:21:24.913Z,4.79
2018-02-19T21:23:52.498Z,4.81
2018-02-19T21:26:20.078Z,4.86
2018-02-19T21:28:47.808Z,4.84
2018-02-19T21:31:15.360Z,4.90
2018-02-19T21:33:43.012Z,4.88
2018-02-19T21:36:10.703Z,4.89
2018-02-19T21:38:38.275Z,4.94
2018-02-19T21:41:05.860Z,4.96
2018-02-19T21:43:33.480Z,4.94
2018-02-19T21:46:01.059Z,4.93
2018-02-19T21:48:28.697Z,4.89
2018-02-19T21:50:56.326Z,4.91
2018-02-19T21:53:23.971Z,4.91
2018-02-19T21:55:51.535Z,4.90
2018-02-19T21:58:19.165Z,4.85
2018-02-19T22:00:46.741Z,4.86
2018-02-19T22:03:14.308Z,4.76
2018-02-19T22:05:41.937Z,4.77
2018-02-19T22:08:09.524Z,4.77
2018-02-19T22:10:37.107Z,4.79
2018-02-19T22:13:04.755Z,4.84
2018-02-19T22:15:32.324Z,4.82
2018-02-19T22:18:00.007Z,4.87
2018-02-19T22:20:27.632Z,4.90
2018-02-19T22:22:55.739Z,4.92
2018-02-19T22:25:23.305Z,4.88
2018-02-19T22:27:52.535Z,4.94
2018-02-19T22:30:20.109Z,4.97
2018-02-19T22:32:47.885Z,4.94
2018-02-19T22:35:15.504Z,4.94
2018-02-19T22:37:43.106Z,4.93
2018-02-19T22:40:10.676Z,4.97
2018-02-19T22:42:38.305Z,5.02
2018-02-19T22:45:05.874Z,5.01
2018-02-19T22:47:33.461Z,5.02
2018-02-19T22:50:01.126Z,5.05
2018-02-19T22:52:28.757Z,5.03
2018-02-19T22:54:56.331Z,5.05
2018-02-19T22:57:23.973Z,5.06
2018-02-19T22:59:51.561Z,5.09
2018-02-19T23:02:19.721Z,5.09
2018-02-19T23:04:47.339Z,5.07
2018-02-19T23:07:14.950Z,5.07
2018-02-19T23:09:42.508Z,5.04
2018-02-19T23:12:10.144Z,5.06
2018-02-19T23:14:37.710Z,5.03
2018-02-19T23:17:05.299Z,5.05
2018-02-19T23:19:32.950Z,5.01
2018-02-19T23:22:00.529Z,5.05
2018-02-19T23:24:28.218Z,5.07
2018-02-19T23:26:55.846Z,5.07
2018-02-19T23:29:23.418Z,5.10
2018-02-19T23:31:51.534Z,5.12
2018-02-19T23:34:19.137Z,5.11
2018-02-19T23:36:46.712Z,5.09
2018-02-19T23:39:14.307Z,5.08
2018-02-19T23:41:41.951Z,5.06
2018-02-19T23:44:09.546Z,5.03
2018-02-19T23:47:15.264Z,5.01
2018-02-19T23:50:02.651Z,4.99
2018-02-19T23:52:40.575Z,4.99
2018-02-19T23:55:08.149Z,5.01
2018-02-19T23:57:35.748Z,4.93
